Rechercher aéroport 
image banner adimage banner adimage banner ad
image banner ad

F72 - Franklin Field

Situé à Franklin, United States

ICAO - F72, IATA -

Données fournies par Airmate  

Information générale

Coordonnées: N38°18'14" W121°25'46"
Élévation : 23 feet MSL.
Variation magnétique : 16° East
Voir autres Aéroports à California

Données opérationnelles

Special qualification required
Heure actuelle UTC:
Heure actuelle locale:
Météo à : KSAC - Sacramento Executive ( 24 km )
METAR: KSAC 251253Z 17004KT 10SM CLR 15/11 A2989 RMK AO2 SLP120 T01500111
TAF: KSAC 251120Z 2512/2612 18005KT P6SM SCT200 FM260000 21010G17KT P6SM FEW150 BKN250
Voir NOTAMs / SUP AIP / TFR affectant cet aéroport [VIEW]
Fréquences de communication: [VIEW]

Pistes:

Identifiant RWYQFULongueur (ft)Largeur (ft)SurfaceLDA (ft)
09104°303160ASPH
27284°303160ASPH
18194°312360ASPH
3614°312360ASPH

Coordonnées de l'aéroport

Adresse: Franklin United States

Vue satellite de F72